Terminal Aerodrome Forecast
Issued by NWS

Home | Current Version | Previous Version | Text Only | Print | Product List | Glossary On
Versions: 1 2 3 4 5 6 7 8 9 10 11 12 13
273
FTUS43 KTOP 061122
TAFFOE
TAF
KFOE 061122Z 0612/0712 17003KT P6SM SKC
     FM061600 19012G19KT P6SM SKC
     FM070100 18009KT P6SM SCT200=

USA.gov is the U.S. government's official web portal to all federal, state and local government web resources and services.